Time;durP1;ratioP1;P1;durP2;ratioP2;P2;SDS_P1;SDS_P2;PMS_P1;PMS_P2;Temp;Humidity;BMP_temperature;BMP_pressure;BME280_temperature;BME280_humidity;BME280_pressure;Samples;Min_cycle;Max_cycle;Signal;HPM_P1;HPM_P2
2023/05/21 00:02:16;;;;;;;4.90;0.77;;;11.70;99.90;;;;;;4991985;28;20043;-45
2023/05/21 00:04:41;;;;;;;1.92;0.73;;;11.60;99.90;;;;;;4992274;28;20026;-48
2023/05/21 00:07:07;;;;;;;0.60;0.50;;;11.60;99.90;;;;;;4992058;28;20034;-42
2023/05/21 00:09:34;;;;;;;0.95;0.77;;;11.60;99.90;;;;;;4991937;28;20033;-45
2023/05/21 00:12:00;;;;;;;0.73;0.70;;;11.60;99.90;;;;;;4991789;28;20377;-41
2023/05/21 00:14:25;;;;;;;1.60;0.90;;;11.60;99.90;;;;;;4992185;28;20485;-42
2023/05/21 00:16:51;;;;;;;1.40;1.30;;;11.60;99.90;;;;;;4992095;28;20863;-50
2023/05/21 00:19:17;;;;;;;2.97;1.10;;;11.50;99.90;;;;;;4991888;28;20018;-41
2023/05/21 00:21:44;;;;;;;5.85;0.90;;;11.50;99.90;;;;;;4991448;28;20064;-41
2023/05/21 00:24:10;;;;;;;2.03;1.45;;;11.50;99.90;;;;;;4991703;28;20030;-40
2023/05/21 00:26:36;;;;;;;1.95;1.00;;;11.50;99.90;;;;;;4991450;28;20034;-44
2023/05/21 00:29:02;;;;;;;1.27;0.90;;;11.40;99.90;;;;;;4991714;28;20026;-52
2023/05/21 00:31:27;;;;;;;1.30;0.88;;;11.40;99.90;;;;;;4991553;28;20049;-51
2023/05/21 00:33:53;;;;;;;1.40;0.93;;;11.40;99.90;;;;;;4991340;28;20038;-49
2023/05/21 00:36:22;;;;;;;1.25;0.98;;;11.40;99.90;;;;;;4990799;28;20041;-45
2023/05/21 00:38:49;;;;;;;2.50;1.30;;;11.30;99.90;;;;;;4991472;28;20030;-44
2023/05/21 00:41:15;;;;;;;2.60;0.73;;;11.30;99.90;;;;;;4991177;28;20172;-40
2023/05/21 00:43:43;;;;;;;2.58;1.75;;;11.30;99.90;;;;;;4991155;28;20046;-40
2023/05/21 00:46:15;;;;;;;6.60;0.90;;;11.30;99.90;;;;;;4991630;28;20085;-41
2023/05/21 00:48:42;;;;;;;1.50;0.80;;;11.30;99.90;;;;;;4991771;28;20030;-41
2023/05/21 00:51:08;;;;;;;2.15;0.90;;;11.30;99.90;;;;;;4991571;28;20034;-42
2023/05/21 00:53:34;;;;;;;2.63;0.80;;;11.20;99.90;;;;;;4991560;28;20728;-46
2023/05/21 00:56:00;;;;;;;3.65;1.17;;;11.20;99.90;;;;;;4991372;28;20232;-44
2023/05/21 00:58:27;;;;;;;1.17;0.65;;;11.20;99.90;;;;;;4991125;28;20433;-40
2023/05/21 01:00:56;;;;;;;1.65;0.93;;;11.20;99.90;;;;;;4991548;28;20041;-41
2023/05/21 01:03:22;;;;;;;1.75;1.33;;;11.20;99.90;;;;;;4991474;28;20129;-44
2023/05/21 01:05:51;;;;;;;3.22;0.90;;;11.20;99.90;;;;;;4991300;28;20113;-47
2023/05/21 01:08:19;;;;;;;;;;;11.10;99.90;;;;;;4991711;28;20109;-42
2023/05/21 01:10:45;;;;;;;1.58;0.90;;;11.10;99.90;;;;;;4991129;28;20420;-47
2023/05/21 01:13:11;;;;;;;2.30;0.80;;;11.10;99.90;;;;;;4989809;28;20041;-45
2023/05/21 01:15:37;;;;;;;1.58;1.10;;;11.10;99.90;;;;;;4991490;28;20436;-45
2023/05/21 01:18:03;;;;;;;5.55;0.70;;;11.20;99.90;;;;;;4991170;28;20096;-43
2023/05/21 01:20:30;;;;;;;2.92;0.95;;;11.10;99.90;;;;;;4991013;28;20489;-49
2023/05/21 01:22:57;;;;;;;4.32;1.15;;;11.10;99.90;;;;;;4991302;28;20169;-42
2023/05/21 01:25:23;;;;;;;1.35;0.90;;;11.10;99.90;;;;;;4991004;28;20076;-44
2023/05/21 01:27:50;;;;;;;2.03;0.88;;;11.10;99.90;;;;;;4990906;28;20186;-45
2023/05/21 01:30:18;;;;;;;2.20;1.08;;;11.10;99.90;;;;;;4991312;28;20482;-52
2023/05/21 01:32:49;;;;;;;2.72;1.10;;;11.10;99.90;;;;;;4991001;28;20022;-48
2023/05/21 01:35:25;;;;;;;2.35;1.33;;;11.10;99.90;;;;;;4984218;28;20022;-44
2023/05/21 01:37:58;;;;;;;7.80;1.00;;;11.00;99.90;;;;;;4990412;28;20389;-41
2023/05/21 01:40:38;;;;;;;1.33;0.93;;;11.10;99.90;;;;;;4978179;28;20037;-49
2023/05/21 01:43:06;;;;;;;0.77;0.57;;;11.00;99.90;;;;;;4990536;28;20081;-53
2023/05/21 01:45:34;;;;;;;1.52;0.90;;;11.00;99.90;;;;;;4990856;28;20031;-42
2023/05/21 01:48:00;;;;;;;0.55;0.50;;;11.10;99.90;;;;;;4993065;28;20385;-43
2023/05/21 01:50:26;;;;;;;4.10;1.30;;;11.00;99.90;;;;;;4995318;28;20081;-55
2023/05/21 01:52:53;;;;;;;3.47;1.17;;;11.00;99.90;;;;;;4994686;28;20034;-44
2023/05/21 01:55:27;;;;;;;1.70;1.08;;;11.00;99.90;;;;;;4994780;28;20014;-48
2023/05/21 01:57:54;;;;;;;5.78;1.38;;;10.90;99.90;;;;;;4994874;28;20027;-45
2023/05/21 02:00:21;;;;;;;1.73;1.23;;;10.90;99.90;;;;;;4994422;28;20030;-46
2023/05/21 02:02:47;;;;;;;2.72;0.90;;;10.90;99.90;;;;;;4993362;28;20054;-49
2023/05/21 02:05:13;;;;;;;2.13;1.20;;;10.80;99.90;;;;;;4994592;28;20033;-41
2023/05/21 02:07:39;;;;;;;6.72;1.13;;;10.80;99.90;;;;;;4993146;28;20466;-45
2023/05/21 02:10:05;;;;;;;1.58;0.70;;;10.80;99.90;;;;;;4994484;28;20037;-49
2023/05/21 02:12:31;;;;;;;1.85;0.90;;;10.70;99.90;;;;;;4994687;28;20052;-44
2023/05/21 02:14:56;;;;;;;1.90;1.33;;;10.70;99.90;;;;;;4994182;28;20109;-43
2023/05/21 02:17:23;;;;;;;1.60;1.00;;;10.70;99.90;;;;;;4994625;28;20057;-42
2023/05/21 02:19:49;;;;;;;4.95;0.90;;;10.60;99.90;;;;;;4994200;28;20041;-43
2023/05/21 02:22:14;;;;;;;0.77;0.75;;;10.60;99.90;;;;;;4994320;28;20042;-51
2023/05/21 02:24:40;;;;;;;1.33;0.85;;;10.60;99.90;;;;;;4994252;28;20512;-43
2023/05/21 02:27:06;;;;;;;3.70;1.70;;;10.60;99.90;;;;;;4994259;28;20053;-41
2023/05/21 02:29:32;;;;;;;1.20;0.88;;;10.60;99.90;;;;;;4993931;28;20031;-49
2023/05/21 02:31:57;;;;;;;1.30;0.82;;;10.60;99.90;;;;;;4992668;28;20112;-40
2023/05/21 02:34:23;;;;;;;2.35;1.30;;;10.50;99.90;;;;;;4994620;28;20038;-41
2023/05/21 02:36:52;;;;;;;2.53;1.10;;;10.50;99.90;;;;;;4994070;28;20014;-54
2023/05/21 02:39:18;;;;;;;2.17;1.05;;;10.50;99.90;;;;;;4993912;28;20501;-51
2023/05/21 02:41:45;;;;;;;3.78;0.95;;;10.50;99.90;;;;;;4993845;28;20034;-51
2023/05/21 02:44:11;;;;;;;2.17;1.30;;;10.40;99.90;;;;;;4994418;28;20032;-43
2023/05/21 02:46:37;;;;;;;0.60;0.57;;;10.40;99.90;;;;;;4994060;28;20030;-44
2023/05/21 02:49:02;;;;;;;1.83;1.13;;;10.40;99.90;;;;;;4993611;28;20048;-49
2023/05/21 02:51:28;;;;;;;1.92;1.15;;;10.40;99.90;;;;;;4994210;28;20050;-47
2023/05/21 02:53:53;;;;;;;1.65;1.00;;;10.40;99.90;;;;;;4993844;28;20028;-47
2023/05/21 02:56:19;;;;;;;1.40;1.13;;;10.40;99.90;;;;;;4993566;28;20026;-54
2023/05/21 02:58:45;;;;;;;2.22;1.35;;;10.30;99.90;;;;;;4992893;28;20073;-55
2023/05/21 03:01:11;;;;;;;3.97;1.55;;;10.40;99.90;;;;;;4992843;28;20034;-46
2023/05/21 03:03:36;;;;;;;3.45;1.30;;;10.30;99.90;;;;;;4993884;28;20033;-46
2023/05/21 03:06:02;;;;;;;0.80;0.80;;;10.30;99.90;;;;;;4993767;28;20392;-47
2023/05/21 03:08:27;;;;;;;7.60;1.17;;;10.30;99.90;;;;;;4993308;28;20077;-43
2023/05/21 03:10:54;;;;;;;2.28;1.15;;;10.30;99.90;;;;;;4993004;28;20023;-43
2023/05/21 03:13:20;;;;;;;4.55;1.33;;;10.30;99.90;;;;;;4993275;28;20041;-41
2023/05/21 03:15:46;;;;;;;2.60;1.20;;;10.30;99.90;;;;;;4991781;28;20034;-40
2023/05/21 03:18:11;;;;;;;3.67;1.60;;;10.30;99.90;;;;;;4993513;28;20023;-48
2023/05/21 03:20:42;;;;;;;5.18;1.70;;;10.20;99.90;;;;;;4993502;28;20488;-43
2023/05/21 03:23:08;;;;;;;7.15;1.80;;;10.20;99.90;;;;;;4993230;28;20030;-49
2023/05/21 03:25:35;;;;;;;4.70;1.55;;;10.10;99.90;;;;;;4992806;28;20070;-41
2023/05/21 03:28:01;;;;;;;2.45;0.98;;;10.10;99.90;;;;;;4992996;28;20034;-41
2023/05/21 03:30:26;;;;;;;4.32;1.13;;;10.10;99.90;;;;;;4993409;28;20015;-45
2023/05/21 03:32:52;;;;;;;4.22;1.85;;;10.10;99.90;;;;;;4993027;28;20034;-47
2023/05/21 03:35:18;;;;;;;6.93;1.33;;;10.20;99.90;;;;;;4993155;28;20034;-51
2023/05/21 03:37:43;;;;;;;3.60;1.23;;;10.10;99.90;;;;;;4992632;28;20490;-44
2023/05/21 03:40:10;;;;;;;3.17;1.23;;;10.10;99.90;;;;;;5000346;28;20473;-44
2023/05/21 03:42:36;;;;;;;1.23;0.70;;;10.10;99.90;;;;;;4992699;28;20049;-44
2023/05/21 03:45:03;;;;;;;3.03;1.63;;;10.10;99.90;;;;;;4992872;28;20494;-48
2023/05/21 03:47:29;;;;;;;3.78;1.52;;;10.10;99.90;;;;;;4992710;28;20054;-45
2023/05/21 03:49:54;;;;;;;2.10;1.60;;;10.10;99.90;;;;;;4992817;28;20026;-44
2023/05/21 03:52:20;;;;;;;6.60;1.40;;;10.10;99.90;;;;;;4992842;28;20033;-48
2023/05/21 03:54:46;;;;;;;5.53;2.05;;;10.10;99.90;;;;;;4992398;28;20042;-41
2023/05/21 03:57:11;;;;;;;2.42;1.67;;;10.10;99.90;;;;;;4992687;28;20109;-48
2023/05/21 03:59:37;;;;;;;14.48;1.35;;;10.10;99.90;;;;;;4992526;28;20026;-48
2023/05/21 04:02:02;;;;;;;2.80;1.40;;;10.10;99.90;;;;;;4992112;28;20395;-41
2023/05/21 04:04:28;;;;;;;9.23;2.15;;;10.20;99.90;;;;;;4992697;28;20044;-40
2023/05/21 04:06:54;;;;;;;2.05;1.33;;;10.20;99.90;;;;;;4992340;28;20022;-43
2023/05/21 04:09:20;;;;;;;4.18;1.67;;;10.20;99.90;;;;;;4992013;28;20084;-50
2023/05/21 04:11:46;;;;;;;1.73;1.15;;;10.20;99.90;;;;;;4991781;28;20026;-41
2023/05/21 04:14:12;;;;;;;3.67;1.70;;;10.20;99.90;;;;;;4992515;28;20057;-48
2023/05/21 04:16:38;;;;;;;4.35;2.15;;;10.20;99.90;;;;;;4992568;28;20393;-40
2023/05/21 04:19:04;;;;;;;2.40;1.73;;;10.20;99.90;;;;;;5007205;28;20031;-42
2023/05/21 04:21:31;;;;;;;5.30;1.98;;;10.20;99.90;;;;;;4992052;28;20026;-42
2023/05/21 04:23:57;;;;;;;2.47;1.52;;;10.20;99.90;;;;;;4991824;28;20042;-51
2023/05/21 04:26:24;;;;;;;2.33;1.25;;;10.20;99.90;;;;;;4992125;28;20033;-41
2023/05/21 04:28:49;;;;;;;2.35;1.20;;;10.20;99.90;;;;;;4992067;28;20085;-52
2023/05/21 04:31:15;;;;;;;1.90;1.23;;;10.20;99.90;;;;;;4992107;28;20027;-53
2023/05/21 04:33:44;;;;;;;5.78;3.45;;;10.20;99.90;;;;;;4991647;28;20045;-50
2023/05/21 04:36:10;;;;;;;2.47;1.07;;;10.20;99.90;;;;;;4992004;28;20042;-41
2023/05/21 04:38:37;;;;;;;2.75;1.48;;;10.30;99.90;;;;;;4990604;28;20267;-45
2023/05/21 04:41:02;;;;;;;1.42;1.27;;;10.30;99.90;;;;;;4991617;28;20057;-48
2023/05/21 04:43:28;;;;;;;6.13;1.40;;;10.30;99.90;;;;;;4991447;28;20482;-49
2023/05/21 04:45:55;;;;;;;2.25;1.45;;;10.30;99.90;;;;;;4992079;28;20050;-46
2023/05/21 04:48:25;;;;;;;2.08;1.48;;;10.30;99.90;;;;;;4991477;28;20065;-41
2023/05/21 04:50:52;;;;;;;3.55;1.58;;;10.30;99.90;;;;;;4991601;28;20481;-41
2023/05/21 04:53:17;;;;;;;6.32;1.35;;;10.30;99.90;;;;;;4991498;28;20023;-50
2023/05/21 04:55:43;;;;;;;2.42;1.33;;;10.30;99.90;;;;;;4991472;28;20371;-42
2023/05/21 04:58:11;;;;;;;3.08;1.48;;;10.40;99.90;;;;;;4991382;28;20022;-44
2023/05/21 05:00:38;;;;;;;3.80;1.33;;;10.40;99.90;;;;;;4991339;28;20030;-43
2023/05/21 05:03:04;;;;;;;2.75;1.45;;;10.40;99.90;;;;;;4991452;28;20118;-44
2023/05/21 05:05:29;;;;;;;6.13;1.30;;;10.40;99.90;;;;;;4991371;28;20109;-59
2023/05/21 05:07:57;;;;;;;8.50;1.52;;;10.50;99.90;;;;;;4991833;28;20456;-45
2023/05/21 05:10:22;;;;;;;2.70;1.50;;;10.50;99.90;;;;;;4988381;28;20030;-43
2023/05/21 05:12:48;;;;;;;7.18;1.83;;;10.60;99.90;;;;;;4990243;28;20130;-53
2023/05/21 05:15:14;;;;;;;3.08;1.25;;;10.70;99.90;;;;;;4981582;28;20015;-43
2023/05/21 05:17:40;;;;;;;2.10;1.50;;;10.70;99.90;;;;;;4991011;28;20108;-55
2023/05/21 05:20:10;;;;;;;7.57;2.20;;;10.90;99.90;;;;;;4991154;28;20038;-41
2023/05/21 05:22:35;;;;;;;3.33;1.17;;;10.90;99.90;;;;;;4990493;28;20044;-48
2023/05/21 05:25:01;;;;;;;3.05;1.75;;;11.00;99.90;;;;;;4989822;28;20030;-49
2023/05/21 05:27:26;;;;;;;3.08;1.52;;;11.10;99.90;;;;;;4990977;28;20053;-45
2023/05/21 05:29:52;;;;;;;2.53;1.52;;;11.30;99.90;;;;;;4990005;28;20053;-41
2023/05/21 05:32:18;;;;;;;2.65;1.40;;;11.30;99.90;;;;;;4991079;28;20026;-49
2023/05/21 05:34:45;;;;;;;2.70;1.38;;;11.50;99.90;;;;;;4990905;28;20022;-53
2023/05/21 05:37:11;;;;;;;2.70;1.23;;;11.60;99.90;;;;;;5006089;28;20117;-48
2023/05/21 05:39:36;;;;;;;2.40;1.95;;;11.80;99.90;;;;;;4990847;28;20118;-51
2023/05/21 05:42:02;;;;;;;3.17;1.67;;;12.00;99.90;;;;;;4990306;28;20060;-46
2023/05/21 05:44:28;;;;;;;3.20;1.63;;;12.20;99.90;;;;;;4991240;28;20050;-47
2023/05/21 05:46:53;;;;;;;13.50;2.15;;;12.50;99.90;;;;;;4990791;28;20060;-46
2023/05/21 05:49:19;;;;;;;1.48;1.00;;;12.90;99.90;;;;;;4991008;28;20478;-41
2023/05/21 05:51:45;;;;;;;6.45;1.65;;;13.30;99.90;;;;;;4991033;28;20081;-45
2023/05/21 05:54:11;;;;;;;2.33;1.63;;;13.90;99.90;;;;;;4990601;28;20389;-41
2023/05/21 05:56:36;;;;;;;7.68;1.50;;;14.60;99.90;;;;;;4991113;28;20033;-52
2023/05/21 05:59:02;;;;;;;4.90;1.48;;;15.30;99.90;;;;;;4990499;28;20148;-46
2023/05/21 06:01:27;;;;;;;8.60;2.53;;;16.00;99.90;;;;;;4990766;28;20444;-45
2023/05/21 06:03:53;;;;;;;2.75;1.73;;;16.60;99.90;;;;;;4990628;28;20030;-40
2023/05/21 06:06:19;;;;;;;2.85;1.67;;;17.10;99.90;;;;;;4990865;28;20105;-51
2023/05/21 06:08:45;;;;;;;2.35;1.20;;;17.50;99.90;;;;;;4990643;28;20038;-48
2023/05/21 06:11:10;;;;;;;5.68;1.33;;;18.00;99.90;;;;;;4990656;28;20019;-54
2023/05/21 06:13:36;;;;;;;3.25;1.35;;;18.10;99.90;;;;;;4991037;28;20114;-47
2023/05/21 06:16:02;;;;;;;2.55;1.20;;;18.30;99.90;;;;;;4990697;28;20394;-44
2023/05/21 06:18:28;;;;;;;3.90;1.15;;;18.60;99.90;;;;;;4990430;28;20469;-46
2023/05/21 06:20:54;;;;;;;2.08;0.98;;;18.80;99.90;;;;;;4990415;28;20041;-50
2023/05/21 06:23:19;;;;;;;1.30;0.73;;;19.20;98.40;;;;;;4990528;28;20030;-41
2023/05/21 06:25:45;;;;;;;3.90;1.00;;;19.40;97.80;;;;;;4990626;28;20031;-45
2023/05/21 06:28:11;;;;;;;3.30;0.90;;;19.60;95.30;;;;;;4989259;28;20504;-43
2023/05/21 06:30:36;;;;;;;1.38;0.80;;;20.00;97.50;;;;;;4993038;28;20056;-47
2023/05/21 06:33:02;;;;;;;4.72;0.93;;;20.20;94.80;;;;;;4990472;28;20397;-46
2023/05/21 06:35:27;;;;;;;1.25;0.75;;;20.40;94.80;;;;;;4994306;28;20026;-41
2023/05/21 06:37:53;;;;;;;1.88;0.82;;;20.40;93.20;;;;;;4993597;28;20504;-48
2023/05/21 06:40:19;;;;;;;4.45;0.90;;;20.30;91.80;;;;;;4994002;28;20023;-42
2023/05/21 06:42:45;;;;;;;1.48;0.70;;;20.30;91.30;;;;;;4992485;28;20363;-50
2023/05/21 06:45:11;;;;;;;1.60;0.75;;;20.80;91.20;;;;;;4993544;28;20064;-47
2023/05/21 06:47:36;;;;;;;1.38;0.85;;;20.90;90.70;;;;;;4995178;28;20054;-49
2023/05/21 06:50:02;;;;;;;0.75;0.60;;;21.30;90.50;;;;;;5001775;28;20026;-43
2023/05/21 06:52:28;;;;;;;1.75;0.65;;;21.50;88.20;;;;;;5000208;28;20030;-44
2023/05/21 06:54:53;;;;;;;1.00;0.70;;;21.70;87.00;;;;;;5004865;28;20030;-42
2023/05/21 06:57:19;;;;;;;2.13;0.60;;;22.10;86.00;;;;;;5002153;28;20050;-41
2023/05/21 06:59:45;;;;;;;1.67;0.65;;;22.20;82.40;;;;;;4994313;28;20030;-40
2023/05/21 07:02:11;;;;;;;1.20;0.68;;;22.30;81.80;;;;;;4992999;28;20068;-41
2023/05/21 07:04:36;;;;;;;2.97;1.13;;;22.50;78.10;;;;;;4993555;28;20049;-50
2023/05/21 07:07:04;;;;;;;0.68;0.45;;;22.40;74.80;;;;;;4993511;28;20018;-48
2023/05/21 07:09:30;;;;;;;2.87;0.40;;;22.40;76.70;;;;;;4993358;28;20034;-47
2023/05/21 07:11:56;;;;;;;0.63;0.47;;;22.90;76.90;;;;;;4993711;28;20370;-42
2023/05/21 07:14:23;;;;;;;1.77;0.52;;;22.90;74.80;;;;;;5000220;28;20044;-43
2023/05/21 07:16:49;;;;;;;1.40;0.70;;;23.10;72.60;;;;;;5000060;28;20470;-44
2023/05/21 07:19:14;;;;;;;1.85;0.63;;;23.20;74.40;;;;;;5007683;28;20030;-44
2023/05/21 07:21:40;;;;;;;0.80;0.50;;;23.00;70.10;;;;;;4997754;28;20034;-41
2023/05/21 07:24:06;;;;;;;0.40;0.40;;;23.40;70.30;;;;;;4997972;28;20026;-40
2023/05/21 07:26:32;;;;;;;1.20;0.60;;;23.20;69.60;;;;;;4999220;28;20033;-54
2023/05/21 07:28:57;;;;;;;1.52;0.60;;;23.30;74.20;;;;;;4998901;28;20045;-46
2023/05/21 07:31:24;;;;;;;0.77;0.50;;;23.30;71.10;;;;;;4993832;28;20027;-42
2023/05/21 07:33:49;;;;;;;2.80;0.32;;;23.40;69.50;;;;;;5008696;28;20112;-46
2023/05/21 07:36:15;;;;;;;0.73;0.40;;;23.60;69.30;;;;;;5000906;28;20101;-40
2023/05/21 07:38:43;;;;;;;0.75;0.50;;;23.80;69.40;;;;;;4993011;28;20074;-42
2023/05/21 07:41:08;;;;;;;2.50;0.50;;;24.30;67.60;;;;;;4993018;28;20485;-41
2023/05/21 07:43:35;;;;;;;0.32;0.30;;;24.40;66.10;;;;;;4992387;28;20073;-48
2023/05/21 07:46:01;;;;;;;1.25;0.65;;;24.40;65.10;;;;;;4988307;28;20085;-51
2023/05/21 07:48:26;;;;;;;1.20;0.50;;;24.80;66.40;;;;;;4995457;28;20026;-47
2023/05/21 07:50:52;;;;;;;0.32;0.32;;;25.10;66.70;;;;;;4992413;28;20018;-42
2023/05/21 07:53:18;;;;;;;0.60;0.32;;;25.30;63.70;;;;;;4999157;28;20033;-47
2023/05/21 07:55:46;;;;;;;1.02;0.52;;;25.30;61.70;;;;;;4992260;28;20057;-43
2023/05/21 07:58:14;;;;;;;1.13;0.60;;;25.30;66.60;;;;;;4991709;28;20089;-47
2023/05/21 08:00:45;;;;;;;0.43;0.37;;;25.00;63.40;;;;;;4991042;28;20027;-46
2023/05/21 08:03:17;;;;;;;0.30;0.30;;;24.90;61.10;;;;;;4992604;28;20042;-41
2023/05/21 08:05:49;;;;;;;0.57;0.50;;;24.90;60.30;;;;;;4991685;28;20026;-47
2023/05/21 08:08:18;;;;;;;1.17;0.68;;;25.10;63.50;;;;;;4990225;28;20084;-40
2023/05/21 08:10:45;;;;;;;0.57;0.32;;;24.90;62.60;;;;;;4989926;28;20092;-43
2023/05/21 08:13:11;;;;;;;1.17;0.40;;;25.20;64.00;;;;;;4990978;28;20050;-39
2023/05/21 08:15:37;;;;;;;0.30;0.30;;;24.20;58.10;;;;;;4991856;28;20026;-43
2023/05/21 08:18:03;;;;;;;0.57;0.40;;;23.50;60.50;;;;;;4991005;28;20023;-49
2023/05/21 08:20:30;;;;;;;0.55;0.40;;;24.10;65.30;;;;;;4990679;28;20027;-43
2023/05/21 08:22:56;;;;;;;0.93;0.52;;;24.70;61.10;;;;;;4990517;28;20038;-51
2023/05/21 08:25:22;;;;;;;2.30;0.40;;;25.10;64.90;;;;;;4990442;28;20038;-43
2023/05/21 08:27:47;;;;;;;1.23;0.50;;;25.50;61.70;;;;;;4990295;28;20050;-51
2023/05/21 08:30:13;;;;;;;1.90;0.40;;;25.50;59.60;;;;;;4990676;28;20033;-54
2023/05/21 08:32:39;;;;;;;0.30;0.30;;;25.70;60.00;;;;;;4990668;28;20397;-45
2023/05/21 08:35:06;;;;;;;0.60;0.40;;;25.90;61.60;;;;;;4990325;28;20023;-43
2023/05/21 08:37:31;;;;;;;0.73;0.40;;;25.70;58.60;;;;;;4990418;28;20026;-44
2023/05/21 08:39:57;;;;;;;0.77;0.50;;;25.70;58.60;;;;;;4990074;28;20053;-47
2023/05/21 08:42:50;;;;;;;0.90;0.60;;;25.40;55.50;;;;;;4990008;28;20524;-44
2023/05/21 08:45:25;;;;;;;0.77;0.50;;;25.60;57.40;;;;;;4987607;28;20038;-44
2023/05/21 08:47:58;;;;;;;0.43;0.40;;;25.80;58.20;;;;;;4990639;28;20022;-52
2023/05/21 08:50:26;;;;;;;0.60;0.47;;;26.00;61.30;;;;;;4991845;28;20054;-45
2023/05/21 08:52:54;;;;;;;0.45;0.30;;;26.00;60.70;;;;;;4991929;28;20105;-46
2023/05/21 08:55:21;;;;;;;0.20;0.20;;;26.30;60.10;;;;;;4991694;28;20028;-42
2023/05/21 08:57:47;;;;;;;0.85;0.35;;;26.10;56.90;;;;;;4991467;28;20064;-41
2023/05/21 09:00:14;;;;;;;0.32;0.30;;;26.20;57.40;;;;;;4991745;28;20022;-45
2023/05/21 09:02:42;;;;;;;0.60;0.40;;;25.90;53.80;;;;;;4991839;28;20046;-47
2023/05/21 09:05:08;;;;;;;0.30;0.30;;;25.90;58.00;;;;;;4991600;28;20026;-50
2023/05/21 09:07:42;;;;;;;0.50;0.47;;;25.90;59.20;;;;;;4991915;28;20030;-49
2023/05/21 09:10:12;;;;;;;0.70;0.50;;;25.90;57.50;;;;;;4991604;28;20026;-53
2023/05/21 09:12:38;;;;;;;1.05;0.40;;;25.90;54.80;;;;;;4991534;28;20030;-45
2023/05/21 09:15:05;;;;;;;0.93;0.57;;;26.40;56.30;;;;;;4991773;28;20069;-40
2023/05/21 09:17:31;;;;;;;1.33;0.57;;;26.50;56.20;;;;;;4991474;28;20428;-40
2023/05/21 09:20:16;;;;;;;0.90;0.55;;;25.90;57.80;;;;;;4991542;28;20500;-42
2023/05/21 09:22:42;;;;;;;0.68;0.50;;;25.70;54.70;;;;;;4991292;28;20081;-41
2023/05/21 09:25:10;;;;;;;0.50;0.40;;;25.40;55.20;;;;;;4991494;28;20061;-43
2023/05/21 09:27:36;;;;;;;5.15;0.65;;;25.10;59.10;;;;;;4991410;28;20632;-47
2023/05/21 09:30:12;;;;;;;1.58;0.57;;;24.60;59.30;;;;;;4991350;28;20030;-45
2023/05/21 09:32:39;;;;;;;0.93;0.40;;;23.90;58.80;;;;;;4991408;28;20053;-43
2023/05/21 09:35:14;;;;;;;1.02;0.45;;;23.70;63.60;;;;;;4991473;28;20061;-41
2023/05/21 09:37:46;;;;;;;0.70;0.40;;;23.80;60.40;;;;;;4991217;28;20661;-45
2023/05/21 09:40:23;;;;;;;0.90;0.50;;;23.70;60.60;;;;;;4991199;28;20061;-46
2023/05/21 09:42:50;;;;;;;1.58;0.50;;;23.80;62.30;;;;;;4991057;28;20047;-46
2023/05/21 09:45:19;;;;;;;1.17;0.50;;;23.50;62.60;;;;;;4990983;28;20454;-41
2023/05/21 09:47:46;;;;;;;0.60;0.60;;;23.30;63.40;;;;;;4991354;28;20030;-42
2023/05/21 09:50:23;;;;;;;0.77;0.60;;;22.80;62.30;;;;;;4991131;28;20022;-43
2023/05/21 09:52:51;;;;;;;3.38;0.52;;;22.40;64.70;;;;;;4991186;28;20069;-49
2023/05/21 09:55:20;;;;;;;1.15;0.80;;;22.00;65.20;;;;;;4991058;28;20014;-45
2023/05/21 09:57:47;;;;;;;0.30;0.30;;;21.70;65.40;;;;;;4991092;28;20090;-44
2023/05/21 10:00:23;;;;;;;1.13;0.60;;;21.50;68.90;;;;;;4991063;28;20022;-49
2023/05/21 10:02:56;;;;;;;1.20;0.73;;;21.40;69.70;;;;;;4990960;28;20215;-43
2023/05/21 10:05:28;;;;;;;1.38;0.68;;;21.20;67.70;;;;;;4990948;28;20026;-42
2023/05/21 10:08:00;;;;;;;1.38;0.68;;;21.70;69.60;;;;;;4990958;28;20551;-48
2023/05/21 10:10:28;;;;;;;0.77;0.50;;;22.50;71.90;;;;;;4994825;28;20367;-46
2023/05/21 10:13:02;;;;;;;0.80;0.55;;;22.70;68.30;;;;;;4994747;28;20018;-42
2023/05/21 10:15:35;;;;;;;1.30;0.70;;;22.40;65.40;;;;;;4994792;28;20034;-43
2023/05/21 10:18:03;;;;;;;0.25;0.25;;;22.40;66.60;;;;;;4994558;28;20022;-43
2023/05/21 10:20:29;;;;;;;0.95;0.68;;;22.50;66.90;;;;;;4994711;28;20038;-44
2023/05/21 10:22:56;;;;;;;3.15;0.55;;;22.10;65.80;;;;;;4994576;28;20529;-44
2023/05/21 10:25:23;;;;;;;2.72;0.50;;;21.80;66.50;;;;;;4994672;28;20038;-42
2023/05/21 10:27:49;;;;;;;0.93;0.45;;;21.60;67.90;;;;;;4994579;28;20041;-41
2023/05/21 10:30:17;;;;;;;1.73;0.60;;;21.90;66.10;;;;;;4994577;28;20018;-53
2023/05/21 10:32:44;;;;;;;0.93;0.50;;;22.40;65.90;;;;;;4994553;28;20034;-45
2023/05/21 10:35:14;;;;;;;1.17;0.63;;;22.80;67.20;;;;;;4994590;28;20031;-49
2023/05/21 10:37:42;;;;;;;1.10;0.65;;;23.50;63.50;;;;;;4994429;28;20421;-43
2023/05/21 10:40:08;;;;;;;3.08;0.80;;;23.60;62.10;;;;;;4994390;28;20018;-51
2023/05/21 10:42:34;;;;;;;0.40;0.38;;;24.10;60.20;;;;;;4994145;28;20070;-44
2023/05/21 10:45:33;;;;;;;1.48;0.68;;;24.50;63.90;;;;;;4994334;28;20061;-44
2023/05/21 10:48:08;;;;;;;0.88;0.50;;;25.00;63.80;;;;;;4994471;28;20364;-49
2023/05/21 10:51:18;;;;;;;0.93;0.50;;;24.80;59.10;;;;;;4994158;28;20034;-47
2023/05/21 10:53:56;;;;;;;1.00;0.55;;;24.40;62.10;;;;;;4993993;28;20011;-47
2023/05/21 10:56:35;;;;;;;1.02;0.60;;;24.00;60.40;;;;;;4994106;28;20102;-45
2023/05/21 10:59:10;;;;;;;;;;;23.90;61.30;;;;;;4994417;28;20433;-51
2023/05/21 11:01:38;;;;;;;0.65;0.50;;;23.70;63.00;;;;;;4994009;28;20377;-47
2023/05/21 11:04:07;;;;;;;0.40;0.40;;;24.00;61.80;;;;;;4993757;28;20482;-44
2023/05/21 11:06:32;;;;;;;1.55;0.63;;;23.90;62.20;;;;;;4994199;28;20039;-50
2023/05/21 11:09:12;;;;;;;1.02;0.70;;;24.10;59.60;;;;;;4993843;28;20026;-45
2023/05/21 11:11:48;;;;;;;0.55;0.55;;;23.80;61.10;;;;;;4993994;28;20030;-52
2023/05/21 11:14:38;;;;;;;0.65;0.45;;;23.80;61.70;;;;;;4993572;28;20328;-49
2023/05/21 11:17:06;;;;;;;1.38;0.60;;;23.70;63.20;;;;;;5008871;28;20027;-40
2023/05/21 11:19:53;;;;;;;1.03;0.60;;;23.50;62.60;;;;;;4993102;28;20022;-47
2023/05/21 11:22:20;;;;;;;0.68;0.50;;;22.90;62.20;;;;;;4993532;28;20032;-49
2023/05/21 11:24:46;;;;;;;0.30;0.30;;;22.60;62.80;;;;;;4993277;28;20041;-45
2023/05/21 11:27:12;;;;;;;0.52;0.50;;;22.40;65.40;;;;;;4999116;28;20026;-46
2023/05/21 11:29:44;;;;;;;1.67;0.50;;;22.00;66.40;;;;;;5001597;28;20121;-52
2023/05/21 11:32:11;;;;;;;0.52;0.43;;;21.90;67.10;;;;;;5003935;28;20101;-43
2023/05/21 11:34:45;;;;;;;0.45;0.43;;;21.70;67.10;;;;;;5001234;28;20623;-41
2023/05/21 11:37:17;;;;;;;0.40;0.40;;;21.60;70.30;;;;;;4999198;28;20068;-54
2023/05/21 11:39:46;;;;;;;2.20;0.55;;;21.40;66.10;;;;;;4999068;28;20080;-46
2023/05/21 11:42:26;;;;;;;1.08;0.50;;;21.10;67.60;;;;;;4998789;28;20127;-47
2023/05/21 11:44:52;;;;;;;0.65;0.50;;;20.90;69.30;;;;;;4991880;28;20057;-47
2023/05/21 11:47:18;;;;;;;1.33;0.60;;;21.00;72.10;;;;;;4996382;28;20065;-45
2023/05/21 11:49:45;;;;;;;2.05;0.47;;;20.80;70.70;;;;;;5001229;28;20649;-47
2023/05/21 11:52:11;;;;;;;0.63;0.50;;;20.90;71.60;;;;;;4997204;28;20029;-46
2023/05/21 11:54:44;;;;;;;1.63;0.70;;;20.60;70.40;;;;;;4995599;28;20058;-46
2023/05/21 11:57:14;;;;;;;1.17;0.65;;;20.60;71.10;;;;;;5002344;28;20074;-50
2023/05/21 11:59:40;;;;;;;1.20;0.60;;;20.50;71.10;;;;;;4999075;28;20488;-43
2023/05/21 12:02:07;;;;;;;1.88;0.80;;;20.50;71.10;;;;;;5001904;28;20073;-47
2023/05/21 12:04:35;;;;;;;1.10;0.80;;;20.80;71.70;;;;;;4991902;28;20076;-45
2023/05/21 12:07:08;;;;;;;1.70;0.77;;;21.20;73.80;;;;;;4997958;28;20030;-51
2023/05/21 12:09:44;;;;;;;4.00;0.80;;;21.60;72.10;;;;;;4991763;28;20441;-47
2023/05/21 12:12:12;;;;;;;1.17;0.70;;;22.10;70.50;;;;;;4992462;28;20069;-43
2023/05/21 12:14:38;;;;;;;0.90;0.70;;;22.30;66.00;;;;;;4991525;28;20019;-53
2023/05/21 12:17:09;;;;;;;1.10;0.60;;;22.20;68.50;;;;;;4994300;28;20026;-54
2023/05/21 12:19:36;;;;;;;1.10;0.60;;;21.70;65.20;;;;;;4994247;28;20486;-44
2023/05/21 12:22:03;;;;;;;0.52;0.52;;;21.50;67.10;;;;;;5000884;28;20037;-44
2023/05/21 12:24:29;;;;;;;0.93;0.60;;;21.10;66.80;;;;;;4997822;28;20030;-45
2023/05/21 12:26:58;;;;;;;1.45;0.80;;;20.90;68.50;;;;;;4992351;28;20026;-46
2023/05/21 12:29:25;;;;;;;1.10;0.70;;;20.90;72.30;;;;;;4996190;28;20405;-57
2023/05/21 12:31:51;;;;;;;1.48;0.70;;;20.90;68.30;;;;;;4995074;28;20014;-49
2023/05/21 12:34:43;;;;;;;1.17;0.70;;;20.90;70.50;;;;;;5001098;28;20032;-49
2023/05/21 12:37:19;;;;;;;2.08;0.88;;;20.80;70.60;;;;;;4994093;28;20028;-46
2023/05/21 12:39:46;;;;;;;0.90;0.60;;;20.60;71.30;;;;;;5004382;28;20034;-44
2023/05/21 12:42:13;;;;;;;0.63;0.40;;;20.70;74.20;;;;;;4997566;28;20174;-54
2023/05/21 12:44:48;;;;;;;1.30;0.60;;;20.50;71.00;;;;;;5003675;28;20100;-48
2023/05/21 12:47:14;;;;;;;0.60;0.50;;;20.40;72.90;;;;;;5012217;28;20045;-50
2023/05/21 12:49:43;;;;;;;1.42;0.70;;;20.40;72.20;;;;;;5005836;28;20481;-43
2023/05/21 12:52:13;;;;;;;1.67;1.02;;;20.30;71.70;;;;;;4992058;28;20023;-47